sensor_id;sensor_type;location;lat;lon;timestamp;temperature;humidity
59923;DHT22;45778;51.142;3.732;2023-01-15T00:01:20;7.80;99.90
59923;DHT22;45778;51.142;3.732;2023-01-15T00:03:46;7.90;99.90
59923;DHT22;45778;51.142;3.732;2023-01-15T00:06:14;7.80;99.90
59923;DHT22;45778;51.142;3.732;2023-01-15T00:08:40;7.80;99.90
59923;DHT22;45778;51.142;3.732;2023-01-15T00:11:05;7.80;99.90
59923;DHT22;45778;51.142;3.732;2023-01-15T00:13:31;7.80;99.90
59923;DHT22;45778;51.142;3.732;2023-01-15T00:16:15;7.80;99.90
59923;DHT22;45778;51.142;3.732;2023-01-15T00:18:41;7.80;99.90
59923;DHT22;45778;51.142;3.732;2023-01-15T00:21:10;7.80;99.90
59923;DHT22;45778;51.142;3.732;2023-01-15T00:23:37;7.80;99.90
59923;DHT22;45778;51.142;3.732;2023-01-15T00:26:26;7.70;99.90
59923;DHT22;45778;51.142;3.732;2023-01-15T00:29:11;7.70;99.90
59923;DHT22;45778;51.142;3.732;2023-01-15T00:31:36;7.70;99.90
59923;DHT22;45778;51.142;3.732;2023-01-15T00:34:02;7.70;99.90
59923;DHT22;45778;51.142;3.732;2023-01-15T00:36:28;7.70;99.90
59923;DHT22;45778;51.142;3.732;2023-01-15T00:38:54;7.70;99.90
59923;DHT22;45778;51.142;3.732;2023-01-15T00:41:20;7.70;99.90
59923;DHT22;45778;51.142;3.732;2023-01-15T00:43:46;7.70;99.90
59923;DHT22;45778;51.142;3.732;2023-01-15T00:46:11;7.60;99.90
59923;DHT22;45778;51.142;3.732;2023-01-15T00:48:37;7.60;99.90
59923;DHT22;45778;51.142;3.732;2023-01-15T00:51:04;7.60;99.90
59923;DHT22;45778;51.142;3.732;2023-01-15T00:53:30;7.60;99.90
59923;DHT22;45778;51.142;3.732;2023-01-15T00:55:56;7.60;99.90
59923;DHT22;45778;51.142;3.732;2023-01-15T00:58:22;7.60;99.90
59923;DHT22;45778;51.142;3.732;2023-01-15T01:00:56;7.60;99.90
59923;DHT22;45778;51.142;3.732;2023-01-15T01:03:22;7.50;99.90
59923;DHT22;45778;51.142;3.732;2023-01-15T01:05:48;7.50;99.90
59923;DHT22;45778;51.142;3.732;2023-01-15T01:08:14;7.50;99.90
59923;DHT22;45778;51.142;3.732;2023-01-15T01:10:40;7.50;99.90
59923;DHT22;45778;51.142;3.732;2023-01-15T01:13:06;7.50;99.90
59923;DHT22;45778;51.142;3.732;2023-01-15T01:15:36;7.40;99.90
59923;DHT22;45778;51.142;3.732;2023-01-15T01:18:02;7.40;99.90
59923;DHT22;45778;51.142;3.732;2023-01-15T01:20:29;7.40;99.90
59923;DHT22;45778;51.142;3.732;2023-01-15T01:22:55;7.40;99.90
59923;DHT22;45778;51.142;3.732;2023-01-15T01:25:21;7.40;99.90
59923;DHT22;45778;51.142;3.732;2023-01-15T01:27:47;7.40;99.90
59923;DHT22;45778;51.142;3.732;2023-01-15T01:30:13;7.40;99.90
59923;DHT22;45778;51.142;3.732;2023-01-15T01:32:42;7.40;99.90
59923;DHT22;45778;51.142;3.732;2023-01-15T01:35:08;7.40;99.90
59923;DHT22;45778;51.142;3.732;2023-01-15T01:37:34;7.40;99.90
59923;DHT22;45778;51.142;3.732;2023-01-15T01:40:00;7.40;99.90
59923;DHT22;45778;51.142;3.732;2023-01-15T01:42:26;7.40;99.90
59923;DHT22;45778;51.142;3.732;2023-01-15T01:45:03;7.40;99.90
59923;DHT22;45778;51.142;3.732;2023-01-15T01:47:30;7.40;99.90
59923;DHT22;45778;51.142;3.732;2023-01-15T01:50:01;7.40;99.90
59923;DHT22;45778;51.142;3.732;2023-01-15T01:52:53;7.30;99.90
59923;DHT22;45778;51.142;3.732;2023-01-15T01:55:22;7.30;99.90
59923;DHT22;45778;51.142;3.732;2023-01-15T01:57:50;7.30;99.90
59923;DHT22;45778;51.142;3.732;2023-01-15T02:00:18;7.30;99.90
59923;DHT22;45778;51.142;3.732;2023-01-15T02:02:45;7.30;99.90
59923;DHT22;45778;51.142;3.732;2023-01-15T02:05:15;7.30;99.90
59923;DHT22;45778;51.142;3.732;2023-01-15T02:07:44;7.30;99.90
59923;DHT22;45778;51.142;3.732;2023-01-15T02:10:14;7.30;99.90
59923;DHT22;45778;51.142;3.732;2023-01-15T02:12:41;7.30;99.90
59923;DHT22;45778;51.142;3.732;2023-01-15T02:15:13;7.20;99.90
59923;DHT22;45778;51.142;3.732;2023-01-15T02:17:44;7.20;99.90
59923;DHT22;45778;51.142;3.732;2023-01-15T02:20:45;7.20;99.90
59923;DHT22;45778;51.142;3.732;2023-01-15T02:26:23;7.20;99.90
59923;DHT22;45778;51.142;3.732;2023-01-15T02:28:54;7.20;99.90
59923;DHT22;45778;51.142;3.732;2023-01-15T02:31:35;7.20;99.90
59923;DHT22;45778;51.142;3.732;2023-01-15T02:34:07;7.20;99.90
59923;DHT22;45778;51.142;3.732;2023-01-15T02:36:38;7.20;99.90
59923;DHT22;45778;51.142;3.732;2023-01-15T02:39:08;7.20;99.90
59923;DHT22;45778;51.142;3.732;2023-01-15T02:41:40;7.20;99.90
59923;DHT22;45778;51.142;3.732;2023-01-15T02:44:08;7.30;99.90
59923;DHT22;45778;51.142;3.732;2023-01-15T02:46:37;7.20;99.90
59923;DHT22;45778;51.142;3.732;2023-01-15T02:49:06;7.10;99.90
59923;DHT22;45778;51.142;3.732;2023-01-15T02:51:50;7.10;99.90
59923;DHT22;45778;51.142;3.732;2023-01-15T02:54:18;7.10;99.90
59923;DHT22;45778;51.142;3.732;2023-01-15T02:56:46;7.10;99.90
59923;DHT22;45778;51.142;3.732;2023-01-15T02:59:21;7.10;99.90
59923;DHT22;45778;51.142;3.732;2023-01-15T03:01:58;7.10;99.90
59923;DHT22;45778;51.142;3.732;2023-01-15T03:04:34;7.00;99.90
59923;DHT22;45778;51.142;3.732;2023-01-15T03:09:43;7.00;99.90
59923;DHT22;45778;51.142;3.732;2023-01-15T03:12:27;7.00;99.90
59923;DHT22;45778;51.142;3.732;2023-01-15T03:15:09;6.90;99.90
59923;DHT22;45778;51.142;3.732;2023-01-15T03:18:07;7.00;99.90
59923;DHT22;45778;51.142;3.732;2023-01-15T03:20:36;6.90;99.90
59923;DHT22;45778;51.142;3.732;2023-01-15T03:23:07;6.90;99.90
59923;DHT22;45778;51.142;3.732;2023-01-15T03:25:39;6.80;99.90
59923;DHT22;45778;51.142;3.732;2023-01-15T03:28:08;6.80;99.90
59923;DHT22;45778;51.142;3.732;2023-01-15T03:30:36;6.80;99.90
59923;DHT22;45778;51.142;3.732;2023-01-15T03:33:02;6.80;99.90
59923;DHT22;45778;51.142;3.732;2023-01-15T03:35:58;6.80;99.90
59923;DHT22;45778;51.142;3.732;2023-01-15T03:38:35;6.70;99.90
59923;DHT22;45778;51.142;3.732;2023-01-15T03:49:39;6.60;99.90
59923;DHT22;45778;51.142;3.732;2023-01-15T03:52:53;6.60;99.90
59923;DHT22;45778;51.142;3.732;2023-01-15T03:57:37;6.70;99.90
59923;DHT22;45778;51.142;3.732;2023-01-15T04:00:53;6.70;99.90
59923;DHT22;45778;51.142;3.732;2023-01-15T04:02:55;6.70;99.90
59923;DHT22;45778;51.142;3.732;2023-01-15T04:05:23;6.70;99.90
59923;DHT22;45778;51.142;3.732;2023-01-15T04:07:50;6.70;99.90
59923;DHT22;45778;51.142;3.732;2023-01-15T04:10:17;6.80;99.90
59923;DHT22;45778;51.142;3.732;2023-01-15T04:12:43;6.70;99.90
59923;DHT22;45778;51.142;3.732;2023-01-15T04:15:10;6.70;99.90
59923;DHT22;45778;51.142;3.732;2023-01-15T04:17:36;6.70;99.90
59923;DHT22;45778;51.142;3.732;2023-01-15T04:20:02;6.70;99.90
59923;DHT22;45778;51.142;3.732;2023-01-15T04:22:28;6.70;99.90
59923;DHT22;45778;51.142;3.732;2023-01-15T04:24:55;6.70;99.90
59923;DHT22;45778;51.142;3.732;2023-01-15T04:27:21;6.80;99.90
59923;DHT22;45778;51.142;3.732;2023-01-15T04:29:47;6.70;99.90
59923;DHT22;45778;51.142;3.732;2023-01-15T04:32:13;6.70;99.90
59923;DHT22;45778;51.142;3.732;2023-01-15T04:34:39;6.80;99.90
59923;DHT22;45778;51.142;3.732;2023-01-15T04:37:05;6.70;99.90
59923;DHT22;45778;51.142;3.732;2023-01-15T04:39:31;6.70;99.90
59923;DHT22;45778;51.142;3.732;2023-01-15T04:41:57;6.70;99.90
59923;DHT22;45778;51.142;3.732;2023-01-15T04:44:41;6.70;99.90
59923;DHT22;45778;51.142;3.732;2023-01-15T04:47:07;6.70;99.90
59923;DHT22;45778;51.142;3.732;2023-01-15T04:49:33;6.70;99.90
59923;DHT22;45778;51.142;3.732;2023-01-15T04:51:59;6.70;99.90
59923;DHT22;45778;51.142;3.732;2023-01-15T04:54:25;6.70;99.90
59923;DHT22;45778;51.142;3.732;2023-01-15T04:56:52;6.70;99.90
59923;DHT22;45778;51.142;3.732;2023-01-15T04:59:20;6.70;99.90
59923;DHT22;45778;51.142;3.732;2023-01-15T05:01:47;6.70;99.90
59923;DHT22;45778;51.142;3.732;2023-01-15T05:04:13;6.70;99.90
59923;DHT22;45778;51.142;3.732;2023-01-15T05:06:39;6.60;99.90
59923;DHT22;45778;51.142;3.732;2023-01-15T05:09:05;6.60;99.90
59923;DHT22;45778;51.142;3.732;2023-01-15T05:11:33;6.60;99.90
59923;DHT22;45778;51.142;3.732;2023-01-15T05:13:58;6.60;99.90
59923;DHT22;45778;51.142;3.732;2023-01-15T05:16:26;6.60;99.90
59923;DHT22;45778;51.142;3.732;2023-01-15T05:18:56;6.50;99.90
59923;DHT22;45778;51.142;3.732;2023-01-15T05:21:31;6.60;99.90
59923;DHT22;45778;51.142;3.732;2023-01-15T05:23:58;6.60;99.90
59923;DHT22;45778;51.142;3.732;2023-01-15T05:26:29;6.60;99.90
59923;DHT22;45778;51.142;3.732;2023-01-15T05:28:57;6.60;99.90
59923;DHT22;45778;51.142;3.732;2023-01-15T05:31:23;6.50;99.90
59923;DHT22;45778;51.142;3.732;2023-01-15T05:33:50;6.50;99.90
59923;DHT22;45778;51.142;3.732;2023-01-15T05:36:19;6.40;99.90
59923;DHT22;45778;51.142;3.732;2023-01-15T05:38:46;6.40;99.90
59923;DHT22;45778;51.142;3.732;2023-01-15T05:41:14;6.40;99.90
59923;DHT22;45778;51.142;3.732;2023-01-15T05:44:02;6.40;99.90
59923;DHT22;45778;51.142;3.732;2023-01-15T05:46:28;6.40;99.90
59923;DHT22;45778;51.142;3.732;2023-01-15T05:49:02;6.40;99.90
59923;DHT22;45778;51.142;3.732;2023-01-15T05:51:28;6.30;99.90
59923;DHT22;45778;51.142;3.732;2023-01-15T05:53:57;6.30;99.90
59923;DHT22;45778;51.142;3.732;2023-01-15T05:56:23;6.30;99.90
59923;DHT22;45778;51.142;3.732;2023-01-15T05:58:49;6.20;99.90
59923;DHT22;45778;51.142;3.732;2023-01-15T06:01:14;6.10;99.90
59923;DHT22;45778;51.142;3.732;2023-01-15T06:03:40;6.10;99.90
59923;DHT22;45778;51.142;3.732;2023-01-15T06:06:09;6.00;99.90
59923;DHT22;45778;51.142;3.732;2023-01-15T06:08:36;6.10;99.90
59923;DHT22;45778;51.142;3.732;2023-01-15T06:11:02;6.10;99.90
59923;DHT22;45778;51.142;3.732;2023-01-15T06:13:28;6.10;99.90
59923;DHT22;45778;51.142;3.732;2023-01-15T06:15:54;6.00;99.90
59923;DHT22;45778;51.142;3.732;2023-01-15T06:18:21;6.00;99.90
59923;DHT22;45778;51.142;3.732;2023-01-15T06:20:48;5.90;99.90
59923;DHT22;45778;51.142;3.732;2023-01-15T06:23:15;5.80;99.90
59923;DHT22;45778;51.142;3.732;2023-01-15T06:25:41;5.90;99.90
59923;DHT22;45778;51.142;3.732;2023-01-15T06:28:07;5.90;99.90
59923;DHT22;45778;51.142;3.732;2023-01-15T06:30:33;5.80;99.90
59923;DHT22;45778;51.142;3.732;2023-01-15T06:32:59;5.70;99.90
59923;DHT22;45778;51.142;3.732;2023-01-15T06:35:25;5.70;99.90
59923;DHT22;45778;51.142;3.732;2023-01-15T06:37:51;5.60;99.90
59923;DHT22;45778;51.142;3.732;2023-01-15T06:40:17;5.60;99.90
59923;DHT22;45778;51.142;3.732;2023-01-15T06:42:43;5.50;99.90
59923;DHT22;45778;51.142;3.732;2023-01-15T06:45:32;5.50;99.90
59923;DHT22;45778;51.142;3.732;2023-01-15T06:48:19;5.40;99.90
59923;DHT22;45778;51.142;3.732;2023-01-15T06:50:45;5.30;99.90
59923;DHT22;45778;51.142;3.732;2023-01-15T06:53:10;5.30;99.90
59923;DHT22;45778;51.142;3.732;2023-01-15T06:55:38;5.20;99.90
59923;DHT22;45778;51.142;3.732;2023-01-15T06:58:03;5.20;99.90
59923;DHT22;45778;51.142;3.732;2023-01-15T07:00:29;5.20;99.90
59923;DHT22;45778;51.142;3.732;2023-01-15T07:02:58;5.30;99.90
59923;DHT22;45778;51.142;3.732;2023-01-15T07:05:23;5.30;99.90
59923;DHT22;45778;51.142;3.732;2023-01-15T07:07:49;5.30;99.90
59923;DHT22;45778;51.142;3.732;2023-01-15T07:10:15;5.20;99.90
59923;DHT22;45778;51.142;3.732;2023-01-15T07:12:41;5.20;99.90
59923;DHT22;45778;51.142;3.732;2023-01-15T07:15:07;5.20;99.90
59923;DHT22;45778;51.142;3.732;2023-01-15T07:17:32;5.20;99.90
59923;DHT22;45778;51.142;3.732;2023-01-15T07:19:58;5.20;99.90
59923;DHT22;45778;51.142;3.732;2023-01-15T07:22:24;5.10;99.90
59923;DHT22;45778;51.142;3.732;2023-01-15T07:24:50;5.10;99.90
59923;DHT22;45778;51.142;3.732;2023-01-15T07:27:15;5.10;99.90
59923;DHT22;45778;51.142;3.732;2023-01-15T07:29:41;5.10;99.90
59923;DHT22;45778;51.142;3.732;2023-01-15T07:32:07;5.10;99.90
59923;DHT22;45778;51.142;3.732;2023-01-15T07:34:32;5.10;99.90
59923;DHT22;45778;51.142;3.732;2023-01-15T07:36:58;5.00;99.90
59923;DHT22;45778;51.142;3.732;2023-01-15T07:39:24;5.10;99.90
59923;DHT22;45778;51.142;3.732;2023-01-15T07:41:50;5.10;99.90
59923;DHT22;45778;51.142;3.732;2023-01-15T07:44:34;5.10;99.90
59923;DHT22;45778;51.142;3.732;2023-01-15T07:47:20;5.20;99.90
59923;DHT22;45778;51.142;3.732;2023-01-15T07:50:11;5.20;99.90
59923;DHT22;45778;51.142;3.732;2023-01-15T07:52:36;5.20;99.90
59923;DHT22;45778;51.142;3.732;2023-01-15T07:55:03;5.20;99.90
59923;DHT22;45778;51.142;3.732;2023-01-15T07:57:29;5.20;99.90
59923;DHT22;45778;51.142;3.732;2023-01-15T07:59:55;5.30;99.90
59923;DHT22;45778;51.142;3.732;2023-01-15T08:02:20;5.30;99.90
59923;DHT22;45778;51.142;3.732;2023-01-15T08:04:46;5.30;99.90
59923;DHT22;45778;51.142;3.732;2023-01-15T08:07:13;5.30;99.90
59923;DHT22;45778;51.142;3.732;2023-01-15T08:09:40;5.30;99.90
59923;DHT22;45778;51.142;3.732;2023-01-15T08:12:06;5.30;99.90
59923;DHT22;45778;51.142;3.732;2023-01-15T08:14:50;5.30;99.90
59923;DHT22;45778;51.142;3.732;2023-01-15T08:17:36;5.30;99.90
59923;DHT22;45778;51.142;3.732;2023-01-15T08:20:04;5.40;99.90
59923;DHT22;45778;51.142;3.732;2023-01-15T08:22:30;5.40;99.90
59923;DHT22;45778;51.142;3.732;2023-01-15T08:24:56;5.50;99.90
59923;DHT22;45778;51.142;3.732;2023-01-15T08:27:21;5.60;99.90
59923;DHT22;45778;51.142;3.732;2023-01-15T08:29:47;5.60;99.90
59923;DHT22;45778;51.142;3.732;2023-01-15T08:32:13;5.70;99.90
59923;DHT22;45778;51.142;3.732;2023-01-15T08:34:39;5.80;99.90
59923;DHT22;45778;51.142;3.732;2023-01-15T08:37:04;5.90;99.90
59923;DHT22;45778;51.142;3.732;2023-01-15T08:39:30;6.00;99.90
59923;DHT22;45778;51.142;3.732;2023-01-15T08:41:56;6.10;99.90
59923;DHT22;45778;51.142;3.732;2023-01-15T08:44:22;6.20;99.90
59923;DHT22;45778;51.142;3.732;2023-01-15T08:46:49;6.30;99.90
59923;DHT22;45778;51.142;3.732;2023-01-15T08:49:16;6.40;99.90
59923;DHT22;45778;51.142;3.732;2023-01-15T08:51:43;6.40;99.90
59923;DHT22;45778;51.142;3.732;2023-01-15T08:54:10;6.50;99.90
59923;DHT22;45778;51.142;3.732;2023-01-15T08:56:37;6.50;99.90
59923;DHT22;45778;51.142;3.732;2023-01-15T08:59:04;6.50;99.90
59923;DHT22;45778;51.142;3.732;2023-01-15T09:01:30;6.60;99.90
59923;DHT22;45778;51.142;3.732;2023-01-15T09:03:56;6.60;99.90
59923;DHT22;45778;51.142;3.732;2023-01-15T09:06:23;6.60;99.90
59923;DHT22;45778;51.142;3.732;2023-01-15T09:08:49;6.70;99.90
59923;DHT22;45778;51.142;3.732;2023-01-15T09:11:15;6.80;99.90
59923;DHT22;45778;51.142;3.732;2023-01-15T09:13:40;6.70;99.90
59923;DHT22;45778;51.142;3.732;2023-01-15T09:16:07;6.70;99.90
59923;DHT22;45778;51.142;3.732;2023-01-15T09:18:36;6.60;99.90
59923;DHT22;45778;51.142;3.732;2023-01-15T09:21:01;6.60;99.90
59923;DHT22;45778;51.142;3.732;2023-01-15T09:23:28;6.60;99.90
59923;DHT22;45778;51.142;3.732;2023-01-15T09:26:02;6.60;99.90
59923;DHT22;45778;51.142;3.732;2023-01-15T09:28:31;6.70;99.90
59923;DHT22;45778;51.142;3.732;2023-01-15T09:30:57;6.70;99.90
59923;DHT22;45778;51.142;3.732;2023-01-15T09:33:23;6.70;99.90
59923;DHT22;45778;51.142;3.732;2023-01-15T09:35:49;6.80;99.90
59923;DHT22;45778;51.142;3.732;2023-01-15T09:38:16;6.80;99.90
59923;DHT22;45778;51.142;3.732;2023-01-15T09:40:50;6.80;99.90
59923;DHT22;45778;51.142;3.732;2023-01-15T09:46:11;6.70;99.90
59923;DHT22;45778;51.142;3.732;2023-01-15T09:54:10;6.50;99.90
59923;DHT22;45778;51.142;3.732;2023-01-15T09:56:38;6.50;99.90
59923;DHT22;45778;51.142;3.732;2023-01-15T09:59:13;6.40;99.90
59923;DHT22;45778;51.142;3.732;2023-01-15T10:01:42;6.30;99.90
59923;DHT22;45778;51.142;3.732;2023-01-15T10:06:59;6.10;99.90
59923;DHT22;45778;51.142;3.732;2023-01-15T10:09:31;6.10;99.90
59923;DHT22;45778;51.142;3.732;2023-01-15T10:12:12;6.10;99.90
59923;DHT22;45778;51.142;3.732;2023-01-15T10:17:46;6.00;99.90
59923;DHT22;45778;51.142;3.732;2023-01-15T10:23:23;6.10;99.90
59923;DHT22;45778;51.142;3.732;2023-01-15T10:25:57;6.20;99.90
59923;DHT22;45778;51.142;3.732;2023-01-15T10:31:22;6.30;99.90
59923;DHT22;45778;51.142;3.732;2023-01-15T10:36:45;6.50;99.90
59923;DHT22;45778;51.142;3.732;2023-01-15T10:42:00;6.50;99.90
59923;DHT22;45778;51.142;3.732;2023-01-15T10:44:45;6.60;99.90
59923;DHT22;45778;51.142;3.732;2023-01-15T10:47:17;6.30;99.90
59923;DHT22;45778;51.142;3.732;2023-01-15T10:49:43;6.00;99.90
59923;DHT22;45778;51.142;3.732;2023-01-15T10:52:22;5.80;99.90
59923;DHT22;45778;51.142;3.732;2023-01-15T10:54:56;5.80;99.90
59923;DHT22;45778;51.142;3.732;2023-01-15T10:57:37;5.80;99.90
59923;DHT22;45778;51.142;3.732;2023-01-15T11:00:03;5.90;99.90
59923;DHT22;45778;51.142;3.732;2023-01-15T11:02:39;6.10;99.90
59923;DHT22;45778;51.142;3.732;2023-01-15T11:05:10;6.40;99.90
59923;DHT22;45778;51.142;3.732;2023-01-15T11:07:47;6.60;99.90
59923;DHT22;45778;51.142;3.732;2023-01-15T11:10:15;6.70;99.90
59923;DHT22;45778;51.142;3.732;2023-01-15T11:12:55;6.70;99.90
59923;DHT22;45778;51.142;3.732;2023-01-15T11:15:45;6.50;99.90
59923;DHT22;45778;51.142;3.732;2023-01-15T11:18:39;6.40;99.90
59923;DHT22;45778;51.142;3.732;2023-01-15T11:21:24;6.40;99.90
59923;DHT22;45778;51.142;3.732;2023-01-15T11:23:54;6.40;99.90
59923;DHT22;45778;51.142;3.732;2023-01-15T11:26:26;6.30;99.90
59923;DHT22;45778;51.142;3.732;2023-01-15T11:28:53;6.40;99.90
59923;DHT22;45778;51.142;3.732;2023-01-15T11:31:20;6.40;99.90
59923;DHT22;45778;51.142;3.732;2023-01-15T11:34:00;6.50;99.90
59923;DHT22;45778;51.142;3.732;2023-01-15T11:36:28;6.60;99.90
59923;DHT22;45778;51.142;3.732;2023-01-15T11:38:54;6.60;99.90
59923;DHT22;45778;51.142;3.732;2023-01-15T11:41:27;6.80;99.90
59923;DHT22;45778;51.142;3.732;2023-01-15T11:44:13;6.90;99.90
59923;DHT22;45778;51.142;3.732;2023-01-15T11:46:57;6.90;99.90
59923;DHT22;45778;51.142;3.732;2023-01-15T11:49:52;7.00;99.90
59923;DHT22;45778;51.142;3.732;2023-01-15T11:52:51;7.00;99.90
59923;DHT22;45778;51.142;3.732;2023-01-15T11:55:21;6.90;99.90
59923;DHT22;45778;51.142;3.732;2023-01-15T11:57:49;6.70;99.90
59923;DHT22;45778;51.142;3.732;2023-01-15T12:02:47;6.90;99.90
59923;DHT22;45778;51.142;3.732;2023-01-15T12:05:20;6.90;99.90
59923;DHT22;45778;51.142;3.732;2023-01-15T12:07:48;7.00;99.90
59923;DHT22;45778;51.142;3.732;2023-01-15T12:10:31;7.00;99.90
59923;DHT22;45778;51.142;3.732;2023-01-15T12:16:46;7.20;99.90
59923;DHT22;45778;51.142;3.732;2023-01-15T12:31:24;7.90;99.90
59923;DHT22;45778;51.142;3.732;2023-01-15T12:33:51;7.90;99.90
59923;DHT22;45778;51.142;3.732;2023-01-15T12:36:21;7.90;99.90
59923;DHT22;45778;51.142;3.732;2023-01-15T12:38:59;7.80;99.90
59923;DHT22;45778;51.142;3.732;2023-01-15T12:44:18;7.50;99.90
59923;DHT22;45778;51.142;3.732;2023-01-15T12:47:15;7.60;99.90
59923;DHT22;45778;51.142;3.732;2023-01-15T12:49:47;7.50;99.90
59923;DHT22;45778;51.142;3.732;2023-01-15T12:52:18;7.50;99.90
59923;DHT22;45778;51.142;3.732;2023-01-15T12:57:34;7.70;99.90
59923;DHT22;45778;51.142;3.732;2023-01-15T13:00:14;7.80;99.90
59923;DHT22;45778;51.142;3.732;2023-01-15T13:03:18;7.70;99.90
59923;DHT22;45778;51.142;3.732;2023-01-15T13:05:58;7.60;99.90
59923;DHT22;45778;51.142;3.732;2023-01-15T13:08:37;7.50;99.90
59923;DHT22;45778;51.142;3.732;2023-01-15T13:11:04;7.50;99.90
59923;DHT22;45778;51.142;3.732;2023-01-15T13:13:37;7.40;99.90
59923;DHT22;45778;51.142;3.732;2023-01-15T13:16:07;7.60;99.90
59923;DHT22;45778;51.142;3.732;2023-01-15T13:21:15;8.10;99.90
59923;DHT22;45778;51.142;3.732;2023-01-15T13:34:35;8.40;99.90
59923;DHT22;45778;51.142;3.732;2023-01-15T13:37:25;8.60;99.90
59923;DHT22;45778;51.142;3.732;2023-01-15T13:40:05;8.10;99.90
59923;DHT22;45778;51.142;3.732;2023-01-15T13:42:35;8.10;99.90
59923;DHT22;45778;51.142;3.732;2023-01-15T13:45:21;8.10;99.90
59923;DHT22;45778;51.142;3.732;2023-01-15T13:48:07;7.80;99.90
59923;DHT22;45778;51.142;3.732;2023-01-15T13:50:41;7.70;99.90
59923;DHT22;45778;51.142;3.732;2023-01-15T13:53:25;7.80;99.90
59923;DHT22;45778;51.142;3.732;2023-01-15T13:55:52;8.20;99.90
59923;DHT22;45778;51.142;3.732;2023-01-15T13:58:25;8.10;99.90
59923;DHT22;45778;51.142;3.732;2023-01-15T14:03:34;7.20;99.90
59923;DHT22;45778;51.142;3.732;2023-01-15T14:06:07;7.30;99.90
59923;DHT22;45778;51.142;3.732;2023-01-15T14:08:44;7.00;99.90
59923;DHT22;45778;51.142;3.732;2023-01-15T14:19:54;6.70;99.90
59923;DHT22;45778;51.142;3.732;2023-01-15T14:36:24;6.30;99.90
59923;DHT22;45778;51.142;3.732;2023-01-15T14:38:59;6.40;99.90
59923;DHT22;45778;51.142;3.732;2023-01-15T14:41:31;6.40;99.90
59923;DHT22;45778;51.142;3.732;2023-01-15T14:43:59;6.40;99.90
59923;DHT22;45778;51.142;3.732;2023-01-15T14:46:32;6.50;99.90
59923;DHT22;45778;51.142;3.732;2023-01-15T14:48:59;6.50;99.90
59923;DHT22;45778;51.142;3.732;2023-01-15T14:51:46;6.40;99.90
59923;DHT22;45778;51.142;3.732;2023-01-15T14:54:17;6.40;99.90
59923;DHT22;45778;51.142;3.732;2023-01-15T14:56:48;6.50;99.90
59923;DHT22;45778;51.142;3.732;2023-01-15T15:04:31;6.30;99.90
59923;DHT22;45778;51.142;3.732;2023-01-15T15:07:12;6.30;99.90
59923;DHT22;45778;51.142;3.732;2023-01-15T15:09:44;6.30;99.90
59923;DHT22;45778;51.142;3.732;2023-01-15T15:15:11;6.30;99.90
59923;DHT22;45778;51.142;3.732;2023-01-15T15:20:51;6.40;99.90
59923;DHT22;45778;51.142;3.732;2023-01-15T15:23:27;6.30;99.90
59923;DHT22;45778;51.142;3.732;2023-01-15T15:26:02;6.40;99.90
59923;DHT22;45778;51.142;3.732;2023-01-15T15:28:28;6.40;99.90
59923;DHT22;45778;51.142;3.732;2023-01-15T15:30:55;6.40;99.90
59923;DHT22;45778;51.142;3.732;2023-01-15T15:33:27;6.40;99.90
59923;DHT22;45778;51.142;3.732;2023-01-15T15:35:57;6.30;99.90
59923;DHT22;45778;51.142;3.732;2023-01-15T15:38:25;6.20;99.90
59923;DHT22;45778;51.142;3.732;2023-01-15T15:40:57;6.20;99.90
59923;DHT22;45778;51.142;3.732;2023-01-15T15:43:28;6.10;99.90
59923;DHT22;45778;51.142;3.732;2023-01-15T15:46:29;6.10;99.90
59923;DHT22;45778;51.142;3.732;2023-01-15T15:49:14;6.10;99.90
59923;DHT22;45778;51.142;3.732;2023-01-15T15:51:53;6.00;99.90
59923;DHT22;45778;51.142;3.732;2023-01-15T15:54:26;6.00;99.90
59923;DHT22;45778;51.142;3.732;2023-01-15T15:57:04;5.90;99.90
59923;DHT22;45778;51.142;3.732;2023-01-15T15:59:44;5.90;99.90
59923;DHT22;45778;51.142;3.732;2023-01-15T16:02:13;5.90;99.90
59923;DHT22;45778;51.142;3.732;2023-01-15T16:04:48;5.90;99.90
59923;DHT22;45778;51.142;3.732;2023-01-15T16:07:24;5.90;99.90
59923;DHT22;45778;51.142;3.732;2023-01-15T16:09:57;5.90;99.90
59923;DHT22;45778;51.142;3.732;2023-01-15T16:12:25;5.90;99.90
59923;DHT22;45778;51.142;3.732;2023-01-15T16:14:53;5.90;99.90
59923;DHT22;45778;51.142;3.732;2023-01-15T16:17:20;5.90;99.90
59923;DHT22;45778;51.142;3.732;2023-01-15T16:19:46;5.90;99.90
59923;DHT22;45778;51.142;3.732;2023-01-15T16:22:15;5.90;99.90
59923;DHT22;45778;51.142;3.732;2023-01-15T16:25:00;5.80;99.90
59923;DHT22;45778;51.142;3.732;2023-01-15T16:27:31;5.80;99.90
59923;DHT22;45778;51.142;3.732;2023-01-15T16:29:58;5.70;99.90
59923;DHT22;45778;51.142;3.732;2023-01-15T16:32:29;5.70;99.90
59923;DHT22;45778;51.142;3.732;2023-01-15T16:35:07;5.70;99.90
59923;DHT22;45778;51.142;3.732;2023-01-15T16:37:39;5.70;99.90
59923;DHT22;45778;51.142;3.732;2023-01-15T16:40:05;5.70;99.90
59923;DHT22;45778;51.142;3.732;2023-01-15T16:42:36;5.70;99.90
59923;DHT22;45778;51.142;3.732;2023-01-15T16:45:19;5.60;99.90
59923;DHT22;45778;51.142;3.732;2023-01-15T16:50:37;5.50;99.90
59923;DHT22;45778;51.142;3.732;2023-01-15T16:53:05;5.50;99.90
59923;DHT22;45778;51.142;3.732;2023-01-15T17:00:42;5.50;99.90
59923;DHT22;45778;51.142;3.732;2023-01-15T17:03:13;5.40;99.90
59923;DHT22;45778;51.142;3.732;2023-01-15T17:05:40;5.10;99.90
59923;DHT22;45778;51.142;3.732;2023-01-15T17:08:15;5.10;99.90
59923;DHT22;45778;51.142;3.732;2023-01-15T17:10:55;5.00;99.90
59923;DHT22;45778;51.142;3.732;2023-01-15T17:13:27;4.80;99.90
59923;DHT22;45778;51.142;3.732;2023-01-15T17:15:59;4.80;99.90
59923;DHT22;45778;51.142;3.732;2023-01-15T17:18:27;4.60;99.90
59923;DHT22;45778;51.142;3.732;2023-01-15T17:20:53;4.50;99.90
59923;DHT22;45778;51.142;3.732;2023-01-15T17:23:23;4.40;99.90
59923;DHT22;45778;51.142;3.732;2023-01-15T17:25:49;4.40;99.90
59923;DHT22;45778;51.142;3.732;2023-01-15T17:28:16;4.50;99.90
59923;DHT22;45778;51.142;3.732;2023-01-15T17:30:43;4.50;99.90
59923;DHT22;45778;51.142;3.732;2023-01-15T17:33:12;4.50;99.90
59923;DHT22;45778;51.142;3.732;2023-01-15T17:35:38;4.50;99.90
59923;DHT22;45778;51.142;3.732;2023-01-15T17:38:09;4.50;99.90
59923;DHT22;45778;51.142;3.732;2023-01-15T17:40:36;4.50;99.90
59923;DHT22;45778;51.142;3.732;2023-01-15T17:43:03;4.50;99.90
59923;DHT22;45778;51.142;3.732;2023-01-15T17:45:31;4.50;99.90
59923;DHT22;45778;51.142;3.732;2023-01-15T17:47:57;4.50;99.90
59923;DHT22;45778;51.142;3.732;2023-01-15T17:50:23;4.50;99.90
59923;DHT22;45778;51.142;3.732;2023-01-15T17:52:49;4.50;99.90
59923;DHT22;45778;51.142;3.732;2023-01-15T17:55:17;4.60;99.90
59923;DHT22;45778;51.142;3.732;2023-01-15T17:58:22;4.60;99.90
59923;DHT22;45778;51.142;3.732;2023-01-15T18:01:20;4.70;99.90
59923;DHT22;45778;51.142;3.732;2023-01-15T18:04:27;4.70;99.90
59923;DHT22;45778;51.142;3.732;2023-01-15T18:07:14;4.90;99.90
59923;DHT22;45778;51.142;3.732;2023-01-15T18:09:40;4.90;99.90
59923;DHT22;45778;51.142;3.732;2023-01-15T18:12:07;5.00;99.90
59923;DHT22;45778;51.142;3.732;2023-01-15T18:14:33;5.00;99.90